Time;durP1;ratioP1;P1;durP2;ratioP2;P2;SDS_P1;SDS_P2;PMS_P1;PMS_P2;Temp;Humidity;BMP_temperature;BMP_pressure;BME280_temperature;BME280_humidity;BME280_pressure;Samples;Min_cycle;Max_cycle;Signal;HPM_P1;HPM_P2
2022/12/10 00:01:43;;;;;;;50.03;31.90;;;;;;;;;;5036170;28;20111;-73
2022/12/10 00:04:10;;;;;;;44.08;29.08;;;;;;;;;;5036970;28;20028;-73
2022/12/10 00:06:37;;;;;;;48.50;30.58;;;;;;;;;;5037497;28;20042;-73
2022/12/10 00:09:04;;;;;;;46.75;27.50;;;;;;;;;;5035823;28;20030;-74
2022/12/10 00:11:30;;;;;;;49.05;31.27;;;;;;;;;;5033418;28;20487;-73
2022/12/10 00:13:56;;;;;;;69.55;39.47;;;;;;;;;;5034616;28;20774;-73
2022/12/10 00:16:24;;;;;;;107.20;54.60;;;;;;;;;;5033097;28;20033;-73
2022/12/10 00:18:50;;;;;;;116.82;57.85;;;;;;;;;;5027688;28;20835;-73
2022/12/10 00:21:17;;;;;;;111.80;55.05;;;;;;;;;;5032910;28;20034;-73
2022/12/10 00:23:44;;;;;;;105.40;53.75;;;;;;;;;;5034978;28;20036;-74
2022/12/10 00:26:10;;;;;;;98.90;50.55;;;;;;;;;;5042739;28;20461;-73
2022/12/10 00:28:36;;;;;;;88.43;48.45;;;;;;;;;;5038184;28;20041;-73
2022/12/10 00:31:06;;;;;;;78.05;44.05;;;;;;;;;;5038193;28;20511;-73
2022/12/10 00:33:32;;;;;;;62.90;35.50;;;;;;;;;;5037115;28;20040;-73
2022/12/10 00:36:02;;;;;;;60.08;33.83;;;;;;;;;;5043393;28;20373;-73
2022/12/10 00:38:28;;;;;;;54.78;32.00;;;;;;;;;;5035903;28;20029;-73
2022/12/10 00:40:53;;;;;;;58.33;33.20;;;;;;;;;;5040700;28;20755;-73
2022/12/10 00:43:19;;;;;;;61.45;35.25;;;;;;;;;;5037695;28;20083;-73
2022/12/10 00:45:45;;;;;;;54.15;34.53;;;;;;;;;;5043882;28;20072;-73
2022/12/10 00:48:12;;;;;;;59.58;33.78;;;;;;;;;;5032815;28;20029;-74
2022/12/10 00:50:37;;;;;;;49.67;29.45;;;;;;;;;;5039423;28;20095;-73
2022/12/10 00:53:03;;;;;;;48.42;30.40;;;;;;;;;;5019308;28;20037;-73
2022/12/10 00:55:29;;;;;;;52.67;30.25;;;;;;;;;;5037807;28;20429;-73
2022/12/10 00:57:55;;;;;;;51.78;30.00;;;;;;;;;;5033614;28;20035;-73
2022/12/10 01:00:21;;;;;;;51.40;31.83;;;;;;;;;;5031762;28;20420;-73
2022/12/10 01:02:47;;;;;;;48.88;32.88;;;;;;;;;;5037651;28;20075;-73
2022/12/10 01:05:13;;;;;;;48.40;30.85;;;;;;;;;;5039271;28;20041;-74
2022/12/10 01:07:39;;;;;;;50.40;32.28;;;;;;;;;;5038081;28;20137;-73
2022/12/10 01:10:05;;;;;;;56.70;34.63;;;;;;;;;;5034668;28;20036;-74
2022/12/10 01:12:31;;;;;;;52.85;32.83;;;;;;;;;;5041094;28;20112;-73
2022/12/10 01:14:57;;;;;;;49.92;31.60;;;;;;;;;;5042321;28;20108;-73
2022/12/10 01:17:23;;;;;;;57.60;35.45;;;;;;;;;;5041289;28;20056;-73
2022/12/10 01:19:49;;;;;;;51.03;32.13;;;;;;;;;;5037231;28;20033;-73
2022/12/10 01:22:15;;;;;;;48.45;30.10;;;;;;;;;;5039353;28;20582;-73
2022/12/10 01:24:41;;;;;;;51.88;31.75;;;;;;;;;;5035132;28;20043;-73
2022/12/10 01:27:07;;;;;;;43.15;28.00;;;;;;;;;;5034943;28;20814;-73
2022/12/10 01:29:33;;;;;;;42.38;27.05;;;;;;;;;;5037203;28;20068;-73
2022/12/10 01:31:59;;;;;;;44.20;27.35;;;;;;;;;;5041190;28;20828;-73
2022/12/10 01:34:25;;;;;;;45.20;29.08;;;;;;;;;;5040599;28;20024;-73
2022/12/10 01:36:53;;;;;;;44.75;29.77;;;;;;;;;;5031842;28;20040;-73
2022/12/10 01:39:20;;;;;;;53.72;34.63;;;;;;;;;;5034871;28;20037;-74
2022/12/10 01:41:51;;;;;;;52.55;32.40;;;;;;;;;;5038511;28;20075;-73
2022/12/10 01:44:17;;;;;;;46.15;30.30;;;;;;;;;;5038339;28;20065;-74
2022/12/10 01:46:44;;;;;;;43.72;27.88;;;;;;;;;;5035414;28;20061;-73
2022/12/10 01:49:12;;;;;;;49.33;30.38;;;;;;;;;;5037805;28;20058;-73
2022/12/10 01:51:41;;;;;;;45.90;29.67;;;;;;;;;;5031810;28;20065;-73
2022/12/10 01:54:09;;;;;;;53.25;29.38;;;;;;;;;;5034567;28;20041;-73
2022/12/10 01:56:37;;;;;;;46.00;29.05;;;;;;;;;;5040016;28;20080;-74
2022/12/10 01:59:04;;;;;;;46.60;31.15;;;;;;;;;;5038642;28;20091;-73
2022/12/10 02:01:37;;;;;;;41.63;26.35;;;;;;;;;;5038421;28;20040;-74
2022/12/10 02:04:26;;;;;;;41.47;28.95;;;;;;;;;;5038651;28;20033;-73
2022/12/10 02:07:01;;;;;;;39.75;25.10;;;;;;;;;;5028122;28;20128;-74
2022/12/10 02:09:57;;;;;;;38.33;23.05;;;;;;;;;;5036761;28;20038;-73
2022/12/10 02:12:45;;;;;;;37.15;23.48;;;;;;;;;;5023023;28;20052;-73
2022/12/10 02:15:16;;;;;;;37.10;22.42;;;;;;;;;;5036368;28;20082;-73
2022/12/10 02:17:57;;;;;;;35.13;22.97;;;;;;;;;;5034478;28;20172;-73
2022/12/10 02:20:30;;;;;;;33.28;21.35;;;;;;;;;;5034816;28;20405;-74
2022/12/10 02:23:02;;;;;;;35.42;23.25;;;;;;;;;;5033933;28;20025;-73
2022/12/10 02:25:46;;;;;;;29.98;20.48;;;;;;;;;;5034926;28;20048;-73
2022/12/10 02:28:18;;;;;;;29.85;20.58;;;;;;;;;;5039268;28;20078;-73
2022/12/10 02:30:45;;;;;;;29.65;19.48;;;;;;;;;;5036333;28;20075;-73
2022/12/10 02:33:12;;;;;;;46.22;26.83;;;;;;;;;;5035739;28;20032;-73
2022/12/10 02:35:40;;;;;;;31.27;19.70;;;;;;;;;;5039538;28;20476;-73
2022/12/10 02:38:18;;;;;;;30.13;18.08;;;;;;;;;;5033106;28;20036;-73
2022/12/10 02:40:47;;;;;;;35.92;22.83;;;;;;;;;;5035383;28;20025;-73
2022/12/10 02:43:13;;;;;;;30.33;20.88;;;;;;;;;;5034770;28;20112;-72
2022/12/10 02:45:40;;;;;;;31.92;18.27;;;;;;;;;;5040726;28;20037;-73
2022/12/10 02:48:06;;;;;;;29.75;18.60;;;;;;;;;;5035595;28;20029;-73
2022/12/10 02:50:32;;;;;;;35.25;20.25;;;;;;;;;;5034756;28;20119;-73
2022/12/10 02:52:58;;;;;;;33.78;19.55;;;;;;;;;;5038208;28;20037;-73
2022/12/10 02:55:24;;;;;;;29.17;18.27;;;;;;;;;;5036211;28;20040;-74
2022/12/10 02:58:13;;;;;;;30.90;19.85;;;;;;;;;;5035999;28;20059;-73
2022/12/10 03:00:46;;;;;;;31.33;18.52;;;;;;;;;;5030877;28;20534;-73
2022/12/10 03:03:12;;;;;;;30.45;18.67;;;;;;;;;;5032563;28;20029;-73
2022/12/10 03:05:45;;;;;;;26.98;17.95;;;;;;;;;;5033864;28;20034;-73
2022/12/10 03:08:17;;;;;;;30.38;19.45;;;;;;;;;;5037738;28;20116;-73
2022/12/10 03:10:51;;;;;;;32.95;19.45;;;;;;;;;;5029592;28;20041;-73
2022/12/10 03:13:20;;;;;;;31.15;20.77;;;;;;;;;;5033816;28;20072;-73
2022/12/10 03:15:47;;;;;;;31.23;22.73;;;;;;;;;;5033633;28;20034;-73
2022/12/10 03:18:16;;;;;;;53.72;32.30;;;;;;;;;;5037603;28;20040;-74
2022/12/10 03:20:44;;;;;;;35.70;21.67;;;;;;;;;;5033265;28;20721;-73
2022/12/10 03:23:11;;;;;;;36.67;23.98;;;;;;;;;;5033597;28;20036;-73
2022/12/10 03:25:38;;;;;;;31.23;19.98;;;;;;;;;;5037890;28;20067;-73
2022/12/10 03:28:04;;;;;;;31.95;19.95;;;;;;;;;;5034346;28;20694;-73
2022/12/10 03:30:32;;;;;;;34.83;20.27;;;;;;;;;;5036610;28;20037;-74
2022/12/10 03:32:58;;;;;;;35.72;20.80;;;;;;;;;;5035091;28;20060;-73
2022/12/10 03:35:25;;;;;;;31.17;19.92;;;;;;;;;;5041515;28;20115;-73
2022/12/10 03:37:51;;;;;;;33.67;20.55;;;;;;;;;;5033949;28;20104;-73
2022/12/10 03:40:18;;;;;;;31.88;19.35;;;;;;;;;;5033767;28;20064;-73
2022/12/10 03:42:44;;;;;;;29.27;18.90;;;;;;;;;;5031201;28;20033;-74
2022/12/10 03:45:10;;;;;;;34.15;21.52;;;;;;;;;;5035032;28;20029;-73
2022/12/10 03:47:36;;;;;;;29.48;17.73;;;;;;;;;;5032203;28;20082;-73
2022/12/10 03:50:03;;;;;;;38.10;25.33;;;;;;;;;;5037894;28;20045;-73
2022/12/10 03:52:29;;;;;;;43.10;26.00;;;;;;;;;;5034048;28;20396;-73
2022/12/10 03:54:55;;;;;;;49.63;31.38;;;;;;;;;;5037091;28;20475;-73
2022/12/10 03:57:21;;;;;;;46.03;27.63;;;;;;;;;;5037745;28;20041;-73
2022/12/10 03:59:47;;;;;;;52.72;34.33;;;;;;;;;;5034758;28;20029;-74
2022/12/10 04:02:13;;;;;;;41.80;26.20;;;;;;;;;;5037832;28;20203;-73
2022/12/10 04:04:39;;;;;;;40.08;24.25;;;;;;;;;;5038275;28;20033;-73
2022/12/10 04:07:05;;;;;;;41.33;26.00;;;;;;;;;;5040146;28;20420;-73
2022/12/10 04:09:31;;;;;;;43.13;28.33;;;;;;;;;;5039342;28;20045;-73
2022/12/10 04:11:58;;;;;;;38.63;25.98;;;;;;;;;;5035539;28;20046;-73
2022/12/10 04:17:09;;;;;;;40.97;25.85;;;;;;;;;;5042886;28;20052;-73
2022/12/10 04:19:35;;;;;;;37.50;24.58;;;;;;;;;;5039630;28;20484;-73
2022/12/10 04:27:32;;;;;;;36.65;24.05;;;;;;;;;;5034597;28;20044;-73
2022/12/10 04:29:59;;;;;;;36.08;23.17;;;;;;;;;;5038745;28;20443;-73
2022/12/10 04:32:25;;;;;;;35.00;22.08;;;;;;;;;;5037369;28;20116;-73
2022/12/10 04:34:51;;;;;;;35.42;20.92;;;;;;;;;;5037901;28;20030;-73
2022/12/10 04:37:18;;;;;;;35.65;23.02;;;;;;;;;;5039656;28;20033;-73
2022/12/10 04:39:44;;;;;;;34.53;21.95;;;;;;;;;;5040123;28;20025;-73
2022/12/10 04:42:11;;;;;;;32.05;21.35;;;;;;;;;;5016645;28;20444;-74
2022/12/10 04:44:37;;;;;;;35.47;22.92;;;;;;;;;;5038510;28;20163;-73
2022/12/10 04:47:03;;;;;;;31.50;21.25;;;;;;;;;;5039134;28;20044;-74
2022/12/10 04:49:29;;;;;;;32.05;21.00;;;;;;;;;;5039850;28;20733;-74
2022/12/10 04:51:55;;;;;;;48.83;30.30;;;;;;;;;;5038937;28;20083;-73
2022/12/10 04:54:21;;;;;;;36.60;22.33;;;;;;;;;;5038746;28;20034;-73
2022/12/10 04:56:47;;;;;;;34.97;22.85;;;;;;;;;;5036288;28;20038;-73
2022/12/10 04:59:13;;;;;;;37.10;24.15;;;;;;;;;;5039984;28;20040;-73
2022/12/10 05:01:39;;;;;;;34.45;22.67;;;;;;;;;;5039068;28;20025;-71
2022/12/10 05:04:06;;;;;;;35.53;22.35;;;;;;;;;;5040860;28;20060;-73
2022/12/10 05:06:32;;;;;;;31.75;19.60;;;;;;;;;;5036026;28;20040;-73
2022/12/10 05:08:58;;;;;;;36.13;20.92;;;;;;;;;;5036322;28;20033;-74
2022/12/10 05:11:26;;;;;;;30.83;18.90;;;;;;;;;;5032550;28;20108;-74
2022/12/10 05:13:53;;;;;;;28.17;18.20;;;;;;;;;;5035272;28;20112;-73
2022/12/10 05:16:19;;;;;;;26.55;17.58;;;;;;;;;;5038528;28;20040;-74
2022/12/10 05:18:46;;;;;;;24.83;17.98;;;;;;;;;;5039452;28;20761;-73
2022/12/10 05:21:13;;;;;;;29.63;17.35;;;;;;;;;;5038733;28;20067;-73
2022/12/10 05:23:40;;;;;;;26.42;17.45;;;;;;;;;;5040715;28;20103;-73
2022/12/10 05:26:06;;;;;;;24.63;15.63;;;;;;;;;;5038560;28;20103;-73
2022/12/10 05:28:33;;;;;;;31.25;19.10;;;;;;;;;;5037729;28;20789;-73
2022/12/10 05:31:00;;;;;;;29.25;19.70;;;;;;;;;;5033453;28;20079;-73
2022/12/10 05:33:26;;;;;;;31.60;20.15;;;;;;;;;;5039007;28;20033;-73
2022/12/10 05:35:57;;;;;;;27.63;18.63;;;;;;;;;;5030171;28;20032;-73
2022/12/10 05:38:24;;;;;;;28.15;19.30;;;;;;;;;;5032437;28;20091;-73
2022/12/10 05:40:50;;;;;;;28.50;19.13;;;;;;;;;;5030137;28;20029;-73
2022/12/10 05:43:16;;;;;;;27.10;17.85;;;;;;;;;;5038381;28;20104;-74
2022/12/10 05:45:42;;;;;;;40.88;24.58;;;;;;;;;;5031628;28;20065;-73
2022/12/10 05:48:10;;;;;;;29.25;20.20;;;;;;;;;;5039217;28;20551;-73
2022/12/10 05:50:36;;;;;;;38.42;24.60;;;;;;;;;;5034106;28;20071;-74
2022/12/10 05:53:02;;;;;;;29.88;19.70;;;;;;;;;;5035461;28;20123;-74
2022/12/10 05:55:28;;;;;;;37.30;26.27;;;;;;;;;;5038035;28;20033;-73
2022/12/10 05:57:55;;;;;;;31.23;20.83;;;;;;;;;;5036114;28;20483;-73
2022/12/10 06:00:23;;;;;;;30.02;20.73;;;;;;;;;;5038026;28;20107;-73
2022/12/10 06:02:49;;;;;;;32.42;21.20;;;;;;;;;;5035497;28;20384;-74
2022/12/10 06:05:15;;;;;;;26.30;19.17;;;;;;;;;;5040451;28;20044;-73
2022/12/10 06:07:42;;;;;;;31.42;19.70;;;;;;;;;;5034414;28;20051;-74
2022/12/10 06:10:08;;;;;;;31.23;20.33;;;;;;;;;;5036103;28;20034;-73
2022/12/10 06:12:34;;;;;;;28.75;18.13;;;;;;;;;;5038668;28;20495;-73
2022/12/10 06:15:00;;;;;;;23.73;16.63;;;;;;;;;;5041817;28;20210;-73
2022/12/10 06:17:26;;;;;;;25.17;16.17;;;;;;;;;;5033767;28;20033;-73
2022/12/10 06:19:52;;;;;;;25.20;16.30;;;;;;;;;;5030390;28;20032;-73
2022/12/10 06:22:18;;;;;;;28.52;17.10;;;;;;;;;;5034246;28;20045;-73
2022/12/10 06:24:44;;;;;;;27.23;18.90;;;;;;;;;;5040839;28;20377;-73
2022/12/10 06:27:10;;;;;;;23.60;16.45;;;;;;;;;;5031379;28;20041;-73
2022/12/10 06:29:36;;;;;;;24.65;18.33;;;;;;;;;;5036169;28;20033;-74
2022/12/10 06:32:02;;;;;;;33.80;23.50;;;;;;;;;;5035688;28;20534;-73
2022/12/10 06:34:28;;;;;;;27.38;18.50;;;;;;;;;;5034271;28;20025;-73
2022/12/10 06:36:54;;;;;;;34.53;19.35;;;;;;;;;;5038881;28;20041;-74
2022/12/10 06:39:20;;;;;;;29.60;16.98;;;;;;;;;;5033663;28;20029;-73
2022/12/10 06:41:46;;;;;;;30.45;19.60;;;;;;;;;;5032864;28;20037;-73
2022/12/10 06:44:12;;;;;;;25.67;15.55;;;;;;;;;;5034289;28;20029;-73
2022/12/10 06:46:39;;;;;;;23.65;14.95;;;;;;;;;;5037364;28;20033;-73
2022/12/10 06:49:05;;;;;;;28.50;19.63;;;;;;;;;;5033377;28;20037;-73
2022/12/10 06:51:31;;;;;;;25.77;16.23;;;;;;;;;;5026244;28;20044;-73
2022/12/10 06:53:58;;;;;;;21.83;15.00;;;;;;;;;;5029350;28;20041;-74
2022/12/10 06:56:24;;;;;;;25.90;16.45;;;;;;;;;;5030271;28;20025;-73
2022/12/10 06:58:50;;;;;;;24.13;15.57;;;;;;;;;;5029906;28;20120;-73
2022/12/10 07:01:20;;;;;;;27.70;19.63;;;;;;;;;;5032653;28;20132;-73
2022/12/10 07:03:50;;;;;;;27.88;18.83;;;;;;;;;;5032008;28;20098;-73
2022/12/10 07:06:16;;;;;;;32.83;21.73;;;;;;;;;;5028545;28;20100;-74
2022/12/10 07:08:42;;;;;;;28.20;17.42;;;;;;;;;;5027466;28;20040;-74
2022/12/10 07:11:09;;;;;;;26.90;16.05;;;;;;;;;;5025736;28;20819;-74
2022/12/10 07:13:36;;;;;;;25.05;15.45;;;;;;;;;;5025024;28;20043;-74
2022/12/10 07:16:02;;;;;;;25.83;16.25;;;;;;;;;;5027472;28;20150;-73
2022/12/10 07:18:28;;;;;;;24.15;15.02;;;;;;;;;;5027775;28;20033;-73
2022/12/10 07:20:54;;;;;;;25.77;16.02;;;;;;;;;;5029576;28;20029;-73
2022/12/10 07:23:20;;;;;;;27.67;16.88;;;;;;;;;;5032204;28;20288;-73
2022/12/10 07:25:46;;;;;;;30.98;20.77;;;;;;;;;;5031146;28;20044;-73
2022/12/10 07:28:12;;;;;;;27.92;18.70;;;;;;;;;;5030794;28;20037;-74
2022/12/10 07:30:38;;;;;;;32.85;18.67;;;;;;;;;;5033195;28;20125;-73
2022/12/10 07:33:04;;;;;;;44.42;26.15;;;;;;;;;;5036363;28;20033;-73
2022/12/10 07:35:30;;;;;;;42.13;23.17;;;;;;;;;;5033227;28;20710;-73
2022/12/10 07:37:56;;;;;;;37.83;24.20;;;;;;;;;;5035532;28;20032;-74
2022/12/10 07:40:22;;;;;;;51.42;23.50;;;;;;;;;;5034657;28;20029;-73
2022/12/10 07:42:48;;;;;;;52.33;26.00;;;;;;;;;;5030905;28;20041;-73
2022/12/10 07:45:14;;;;;;;45.13;24.05;;;;;;;;;;5036350;28;20111;-73
2022/12/10 07:47:40;;;;;;;37.55;21.48;;;;;;;;;;5035572;28;20041;-73
2022/12/10 07:50:06;;;;;;;45.50;26.73;;;;;;;;;;5033581;28;20057;-73
2022/12/10 07:52:32;;;;;;;38.20;24.48;;;;;;;;;;5033356;28;20040;-73
2022/12/10 07:54:58;;;;;;;43.45;26.25;;;;;;;;;;5037850;28;20021;-74
2022/12/10 07:57:24;;;;;;;42.20;24.05;;;;;;;;;;5030590;28;20114;-73
2022/12/10 07:59:50;;;;;;;51.53;30.95;;;;;;;;;;5037598;28;20025;-74
2022/12/10 08:02:16;;;;;;;48.75;28.35;;;;;;;;;;5037826;28;20554;-73
2022/12/10 08:04:42;;;;;;;64.35;38.42;;;;;;;;;;5037593;28;20146;-74
2022/12/10 08:07:08;;;;;;;52.65;30.95;;;;;;;;;;5032903;28;20033;-73
2022/12/10 08:09:34;;;;;;;48.75;31.42;;;;;;;;;;5038352;28;20065;-73
2022/12/10 08:12:00;;;;;;;54.40;31.73;;;;;;;;;;5038998;28;20108;-73
2022/12/10 08:14:26;;;;;;;54.42;31.67;;;;;;;;;;5033147;28;20044;-73
2022/12/10 08:16:52;;;;;;;45.80;29.13;;;;;;;;;;5037640;28;20598;-73
2022/12/10 08:19:18;;;;;;;48.35;26.63;;;;;;;;;;5037113;28;20075;-73
2022/12/10 08:21:44;;;;;;;40.88;25.27;;;;;;;;;;5034347;28;20548;-73
2022/12/10 08:24:10;;;;;;;54.38;34.63;;;;;;;;;;5032793;28;20042;-74
2022/12/10 08:26:37;;;;;;;44.70;27.23;;;;;;;;;;5035273;28;20872;-73
2022/12/10 08:29:03;;;;;;;43.30;25.20;;;;;;;;;;5034253;28;20439;-73
2022/12/10 08:31:29;;;;;;;47.03;29.13;;;;;;;;;;5036244;28;20031;-73
2022/12/10 08:33:55;;;;;;;48.65;30.80;;;;;;;;;;5032471;28;20079;-73
2022/12/10 08:36:21;;;;;;;48.90;31.95;;;;;;;;;;5039532;28;20041;-73
2022/12/10 08:38:47;;;;;;;65.65;30.77;;;;;;;;;;5032866;28;20455;-73
2022/12/10 08:41:18;;;;;;;47.47;24.33;;;;;;;;;;5035401;28;20033;-73
2022/12/10 08:43:44;;;;;;;45.97;25.85;;;;;;;;;;5034323;28;20076;-73
2022/12/10 08:46:11;;;;;;;48.10;27.67;;;;;;;;;;5036214;28;20708;-73
2022/12/10 08:48:37;;;;;;;50.50;29.50;;;;;;;;;;5035911;28;20104;-73
2022/12/10 08:51:04;;;;;;;43.58;29.23;;;;;;;;;;5034017;28;20053;-73
2022/12/10 08:53:30;;;;;;;35.45;24.65;;;;;;;;;;5034422;28;20072;-74
2022/12/10 08:55:56;;;;;;;47.88;25.75;;;;;;;;;;5036928;28;20475;-73
2022/12/10 08:58:22;;;;;;;46.05;31.10;;;;;;;;;;5037710;28;20117;-73
2022/12/10 09:00:48;;;;;;;54.03;35.55;;;;;;;;;;5034101;28;20091;-73
2022/12/10 09:03:15;;;;;;;41.85;27.42;;;;;;;;;;5039205;28;20529;-73
2022/12/10 09:05:41;;;;;;;35.83;23.15;;;;;;;;;;5033371;28;20037;-73
2022/12/10 09:08:07;;;;;;;31.63;19.58;;;;;;;;;;5043258;28;20459;-73
2022/12/10 09:10:33;;;;;;;39.08;23.55;;;;;;;;;;5035471;28;20567;-73
2022/12/10 09:12:59;;;;;;;42.70;25.25;;;;;;;;;;5034184;28;20037;-73
2022/12/10 09:15:25;;;;;;;37.13;21.98;;;;;;;;;;5037955;28;20494;-73
2022/12/10 09:17:51;;;;;;;36.75;21.90;;;;;;;;;;5038004;28;20033;-73
2022/12/10 09:20:17;;;;;;;35.85;19.98;;;;;;;;;;5038576;28;20037;-73
2022/12/10 09:22:43;;;;;;;35.50;22.83;;;;;;;;;;5038972;28;20957;-73
2022/12/10 09:25:10;;;;;;;39.85;24.75;;;;;;;;;;5041792;28;20033;-73
2022/12/10 09:27:36;;;;;;;34.60;21.13;;;;;;;;;;5032361;28;20065;-73
2022/12/10 09:30:03;;;;;;;35.47;21.25;;;;;;;;;;5040914;28;20031;-73
2022/12/10 09:32:29;;;;;;;32.67;22.38;;;;;;;;;;5034800;28;20047;-73
2022/12/10 09:34:55;;;;;;;34.53;21.73;;;;;;;;;;5039230;28;20367;-73
2022/12/10 09:37:21;;;;;;;33.28;22.23;;;;;;;;;;5033139;28;20041;-73
2022/12/10 09:39:47;;;;;;;37.67;26.55;;;;;;;;;;5037196;28;20029;-74
2022/12/10 09:42:22;;;;;;;24.63;15.40;;;;;;;;;;5036960;28;20108;-73
2022/12/10 09:44:56;;;;;;;20.58;14.48;;;;;;;;;;5039557;28;20057;-73
2022/12/10 09:47:25;;;;;;;26.90;16.15;;;;;;;;;;5040890;28;20033;-73
2022/12/10 09:50:10;;;;;;;24.58;14.20;;;;;;;;;;5042381;28;20116;-73
2022/12/10 09:52:40;;;;;;;28.48;17.95;;;;;;;;;;5029873;28;20026;-73
2022/12/10 09:55:11;;;;;;;26.60;16.67;;;;;;;;;;5038876;28;20052;-73
2022/12/10 09:57:42;;;;;;;23.33;14.57;;;;;;;;;;5033838;28;20087;-73
2022/12/10 10:00:22;;;;;;;17.77;11.48;;;;;;;;;;5038639;28;20033;-73
2022/12/10 10:02:49;;;;;;;13.98;8.38;;;;;;;;;;5037993;28;20134;-73
2022/12/10 10:05:18;;;;;;;10.55;7.25;;;;;;;;;;5037746;28;20033;-73
2022/12/10 10:07:58;;;;;;;12.02;7.43;;;;;;;;;;5037968;28;20477;-73
2022/12/10 10:10:24;;;;;;;12.57;7.72;;;;;;;;;;5036800;28;20037;-73
2022/12/10 10:12:55;;;;;;;11.25;8.02;;;;;;;;;;5036011;28;20049;-73
2022/12/10 10:15:24;;;;;;;10.90;8.32;;;;;;;;;;5038365;28;20044;-73
2022/12/10 10:17:52;;;;;;;10.43;7.80;;;;;;;;;;5034563;28;20033;-72
2022/12/10 10:20:18;;;;;;;12.02;7.72;;;;;;;;;;5032863;28;20033;-73
2022/12/10 10:22:44;;;;;;;11.45;8.90;;;;;;;;;;5039547;28;20094;-73
2022/12/10 10:25:15;;;;;;;16.35;9.80;;;;;;;;;;5032368;28;20478;-73
2022/12/10 10:27:41;;;;;;;16.58;12.23;;;;;;;;;;5034548;28;20033;-72
2022/12/10 10:30:15;;;;;;;14.18;10.70;;;;;;;;;;5035581;28;20036;-72
2022/12/10 10:32:41;;;;;;;16.48;13.00;;;;;;;;;;5036852;28;20777;-73
2022/12/10 10:35:07;;;;;;;13.98;9.82;;;;;;;;;;5036828;28;20038;-73
2022/12/10 10:37:36;;;;;;;15.45;10.45;;;;;;;;;;5033429;28;20056;-73
2022/12/10 10:40:03;;;;;;;14.05;10.43;;;;;;;;;;5033194;28;20502;-73
2022/12/10 10:42:37;;;;;;;13.35;9.57;;;;;;;;;;5036150;28;20083;-73
2022/12/10 10:45:04;;;;;;;12.55;8.98;;;;;;;;;;5035518;28;20033;-73
2022/12/10 10:47:32;;;;;;;15.60;11.35;;;;;;;;;;5037158;28;20048;-73
2022/12/10 10:49:59;;;;;;;14.80;9.88;;;;;;;;;;5031603;28;20664;-73
2022/12/10 10:52:27;;;;;;;12.45;9.52;;;;;;;;;;5029512;28;20183;-73
2022/12/10 10:54:53;;;;;;;12.98;9.35;;;;;;;;;;5033361;28;20033;-73
2022/12/10 10:57:24;;;;;;;17.10;11.48;;;;;;;;;;5033865;28;20064;-73
2022/12/10 10:59:53;;;;;;;13.20;10.48;;;;;;;;;;5037211;28;20025;-73
2022/12/10 11:02:38;;;;;;;12.90;9.98;;;;;;;;;;5037139;28;20495;-73
2022/12/10 11:05:06;;;;;;;14.82;11.07;;;;;;;;;;5029842;28;20060;-73
2022/12/10 11:07:34;;;;;;;14.18;10.93;;;;;;;;;;5036670;28;20037;-73
2022/12/10 11:10:00;;;;;;;15.43;11.43;;;;;;;;;;5034302;28;20057;-73
2022/12/10 11:12:32;;;;;;;16.60;12.25;;;;;;;;;;5030208;28;20037;-73
2022/12/10 11:14:58;;;;;;;20.65;14.80;;;;;;;;;;5038118;28;20029;-73
2022/12/10 11:17:25;;;;;;;17.10;12.20;;;;;;;;;;5032915;28;20396;-74
2022/12/10 11:19:55;;;;;;;14.77;11.50;;;;;;;;;;5035314;28;20025;-74
2022/12/10 11:22:26;;;;;;;12.98;9.70;;;;;;;;;;5032636;28;20549;-73
2022/12/10 11:24:52;;;;;;;17.25;12.38;;;;;;;;;;5032826;28;20037;-73
2022/12/10 11:27:38;;;;;;;16.48;11.00;;;;;;;;;;5036425;28;20102;-73
2022/12/10 11:30:10;;;;;;;15.90;11.60;;;;;;;;;;5038884;28;20483;-73
2022/12/10 11:32:55;;;;;;;17.63;13.10;;;;;;;;;;5034818;28;20073;-73
2022/12/10 11:35:31;;;;;;;15.52;12.18;;;;;;;;;;5034683;28;20132;-73
2022/12/10 11:38:21;;;;;;;17.15;13.65;;;;;;;;;;5035062;28;20608;-72
2022/12/10 11:40:50;;;;;;;17.67;13.23;;;;;;;;;;5031686;28;20033;-74
2022/12/10 11:43:28;;;;;;;21.48;15.75;;;;;;;;;;5034535;28;20075;-74
2022/12/10 11:46:00;;;;;;;21.42;16.40;;;;;;;;;;5037423;28;20412;-73
2022/12/10 11:48:33;;;;;;;22.48;17.42;;;;;;;;;;5032256;28;20029;-73
2022/12/10 11:51:08;;;;;;;21.55;16.67;;;;;;;;;;5032929;28;20049;-74
2022/12/10 11:53:53;;;;;;;21.08;15.73;;;;;;;;;;5034221;28;20034;-73
2022/12/10 11:56:31;;;;;;;19.92;14.80;;;;;;;;;;5037975;28;20037;-73
2022/12/10 11:58:57;;;;;;;20.95;15.80;;;;;;;;;;5034106;28;20044;-73
2022/12/10 12:01:38;;;;;;;21.65;16.27;;;;;;;;;;5035955;28;20041;-73
2022/12/10 12:04:07;;;;;;;21.00;15.27;;;;;;;;;;5033507;28;20068;-73
2022/12/10 12:06:36;;;;;;;21.63;16.92;;;;;;;;;;5033319;28;20083;-74
2022/12/10 12:09:20;;;;;;;23.05;18.02;;;;;;;;;;5015201;28;20387;-73
2022/12/10 12:11:48;;;;;;;25.55;18.67;;;;;;;;;;5028567;28;20037;-73
2022/12/10 12:14:20;;;;;;;27.08;19.73;;;;;;;;;;5034707;28;20603;-73
2022/12/10 12:16:48;;;;;;;24.38;18.13;;;;;;;;;;5032162;28;20029;-73
2022/12/10 12:19:17;;;;;;;21.50;15.85;;;;;;;;;;5034756;28;20029;-74
2022/12/10 12:21:45;;;;;;;25.63;18.90;;;;;;;;;;5036447;28;20037;-73
2022/12/10 12:24:20;;;;;;;20.73;15.88;;;;;;;;;;5038396;28;20132;-71
2022/12/10 12:26:49;;;;;;;23.70;17.55;;;;;;;;;;5033182;28;20128;-72
2022/12/10 12:29:21;;;;;;;22.98;15.95;;;;;;;;;;5038844;28;20029;-73
2022/12/10 12:31:53;;;;;;;21.42;15.50;;;;;;;;;;5039430;28;20766;-73
2022/12/10 12:34:19;;;;;;;;;;;;;;;;;;5036220;28;20060;-74
2022/12/10 12:36:45;;;;;;;19.67;14.18;;;;;;;;;;5040841;28;20455;-73
2022/12/10 12:39:30;;;;;;;21.75;16.10;;;;;;;;;;5042451;28;20065;-73
2022/12/10 12:42:00;;;;;;;20.30;14.20;;;;;;;;;;5037943;28;20029;-73
2022/12/10 12:44:49;;;;;;;21.35;15.35;;;;;;;;;;5034221;28;20052;-73
2022/12/10 12:47:34;;;;;;;23.88;16.33;;;;;;;;;;4999264;28;20049;-73
2022/12/10 12:50:01;;;;;;;21.40;14.45;;;;;;;;;;5036810;28;20079;-73
2022/12/10 12:52:33;;;;;;;19.00;13.50;;;;;;;;;;5040241;28;20731;-73
2022/12/10 12:55:02;;;;;;;20.92;14.82;;;;;;;;;;5040532;28;20025;-73
2022/12/10 12:57:28;;;;;;;19.40;14.35;;;;;;;;;;5034303;28;20029;-73
2022/12/10 13:00:05;;;;;;;18.08;13.93;;;;;;;;;;5040782;28;20475;-73
2022/12/10 13:02:40;;;;;;;18.35;12.65;;;;;;;;;;5037952;28;20452;-73
2022/12/10 13:05:12;;;;;;;22.00;15.57;;;;;;;;;;5036610;28;20135;-73
2022/12/10 13:07:38;;;;;;;20.88;15.35;;;;;;;;;;5035459;28;20041;-73
2022/12/10 13:10:11;;;;;;;19.60;13.50;;;;;;;;;;5039831;28;20033;-73
2022/12/10 13:12:37;;;;;;;;;;;;;;;;;;5039271;28;20052;-73
2022/12/10 13:15:15;;;;;;;21.17;14.35;;;;;;;;;;5035964;28;20334;-73
2022/12/10 13:18:00;;;;;;;18.30;13.77;;;;;;;;;;5036355;28;20104;-73
2022/12/10 13:20:29;;;;;;;24.05;15.43;;;;;;;;;;5032738;28;20041;-73
2022/12/10 13:23:05;;;;;;;19.95;14.30;;;;;;;;;;5038931;28;20028;-72
2022/12/10 13:25:47;;;;;;;21.38;15.13;;;;;;;;;;5033652;28;20417;-72
2022/12/10 13:28:22;;;;;;;20.83;14.02;;;;;;;;;;5033962;28;20121;-72
2022/12/10 13:31:07;;;;;;;19.50;12.77;;;;;;;;;;5032591;28;20056;-73
2022/12/10 13:33:51;;;;;;;22.20;13.48;;;;;;;;;;5038267;28;20143;-72
2022/12/10 13:36:21;;;;;;;24.77;16.23;;;;;;;;;;5032699;28;20025;-72
2022/12/10 13:39:05;;;;;;;21.95;14.57;;;;;;;;;;5035327;28;20159;-73
2022/12/10 13:44:32;;;;;;;20.83;13.65;;;;;;;;;;5033383;28;20122;-73
2022/12/10 13:47:04;;;;;;;23.15;15.18;;;;;;;;;;5038671;28;20037;-73
2022/12/10 13:49:31;;;;;;;19.50;13.65;;;;;;;;;;5032951;28;20045;-70
2022/12/10 13:51:57;;;;;;;24.67;17.27;;;;;;;;;;5034198;28;20034;-73
2022/12/10 13:54:41;;;;;;;23.15;16.50;;;;;;;;;;5037602;28;20028;-73
2022/12/10 13:57:13;;;;;;;21.60;13.65;;;;;;;;;;5035993;28;20037;-72
2022/12/10 14:00:06;;;;;;;23.77;14.95;;;;;;;;;;5036458;28;20064;-73
2022/12/10 14:03:01;;;;;;;21.98;15.10;;;;;;;;;;5034120;28;20127;-73
2022/12/10 14:05:38;;;;;;;26.10;16.50;;;;;;;;;;5023268;28;20042;-73
2022/12/10 14:08:06;;;;;;;23.27;16.40;;;;;;;;;;5038852;28;20029;-73
2022/12/10 14:10:33;;;;;;;25.65;17.40;;;;;;;;;;5032904;28;20068;-73
2022/12/10 14:13:01;;;;;;;25.63;17.70;;;;;;;;;;5033959;28;20091;-73
2022/12/10 14:15:28;;;;;;;24.35;16.83;;;;;;;;;;5036418;28;20119;-73
2022/12/10 14:18:01;;;;;;;29.45;19.77;;;;;;;;;;5041469;28;20033;-73
2022/12/10 14:20:29;;;;;;;24.73;16.02;;;;;;;;;;5017960;28;20721;-73
2022/12/10 14:23:32;;;;;;;28.45;20.67;;;;;;;;;;5040013;28;20037;-73
2022/12/10 14:25:45;;;;;;;25.88;17.13;;;;;;;;;;5035872;28;20387;-73
2022/12/10 14:28:13;;;;;;;23.13;17.13;;;;;;;;;;5038282;28;20815;-73
2022/12/10 14:30:42;;;;;;;25.05;17.63;;;;;;;;;;5036987;28;20254;-73
2022/12/10 14:33:12;;;;;;;28.02;19.10;;;;;;;;;;5040928;28;20112;-72
2022/12/10 14:35:38;;;;;;;24.75;16.67;;;;;;;;;;5037539;28;20037;-72
2022/12/10 14:38:04;;;;;;;21.50;14.93;;;;;;;;;;5036134;28;20044;-72
2022/12/10 14:40:32;;;;;;;28.75;16.75;;;;;;;;;;5035649;28;20048;-72